Time;durP1;ratioP1;P1;durP2;ratioP2;P2;SDS_P1;SDS_P2;PMS_P1;PMS_P2;Temp;Humidity;BMP_temperature;BMP_pressure;BME280_temperature;BME280_humidity;BME280_pressure;Samples;Min_cycle;Max_cycle;Signal;HPM_P1;HPM_P2
2021/08/19 00:01:27;;;;;;;8.70;4.15;;;14.90;99.90;;;;;;5073500;28;20060;-75
2021/08/19 00:03:52;;;;;;;10.20;3.97;;;14.90;99.90;;;;;;5071862;28;20036;-78
2021/08/19 00:06:18;;;;;;;9.18;3.83;;;14.90;99.90;;;;;;5068848;28;20075;-78
2021/08/19 00:08:44;;;;;;;7.55;3.30;;;14.90;99.90;;;;;;5067326;28;20043;-77
2021/08/19 00:11:10;;;;;;;5.47;3.63;;;14.90;99.90;;;;;;5068316;28;20048;-78
2021/08/19 00:13:36;;;;;;;8.65;4.00;;;14.90;99.90;;;;;;5066792;28;20035;-78
2021/08/19 00:16:02;;;;;;;5.13;4.10;;;14.90;99.90;;;;;;5063910;28;20493;-78
2021/08/19 00:18:28;;;;;;;5.95;3.95;;;14.90;99.90;;;;;;5067605;28;20036;-78
2021/08/19 00:20:53;;;;;;;6.65;4.38;;;14.90;99.90;;;;;;5068441;28;20036;-78
2021/08/19 00:23:19;;;;;;;8.68;4.47;;;14.90;99.90;;;;;;5068041;28;20024;-77
2021/08/19 00:25:45;;;;;;;7.50;3.70;;;14.80;99.90;;;;;;5067191;28;20473;-78
2021/08/19 00:28:11;;;;;;;6.13;3.58;;;14.90;99.90;;;;;;5065722;28;20086;-77
2021/08/19 00:30:38;;;;;;;4.65;3.50;;;14.80;99.90;;;;;;5065605;28;20798;-79
2021/08/19 00:33:03;;;;;;;7.25;3.50;;;14.80;99.90;;;;;;5064616;28;20031;-78
2021/08/19 00:35:29;;;;;;;6.35;3.70;;;14.80;99.90;;;;;;5068257;28;20385;-78
2021/08/19 00:37:55;;;;;;;5.00;3.63;;;14.90;99.90;;;;;;5068248;28;20738;-77
2021/08/19 00:40:20;;;;;;;8.30;3.92;;;14.80;99.90;;;;;;5068359;28;20524;-78
2021/08/19 00:42:46;;;;;;;6.05;3.80;;;14.80;99.90;;;;;;5068303;28;20101;-78
2021/08/19 00:45:12;;;;;;;7.28;4.03;;;14.80;99.90;;;;;;5067089;28;20059;-78
2021/08/19 00:47:39;;;;;;;5.30;3.75;;;14.90;99.90;;;;;;5068333;28;20048;-78
2021/08/19 00:50:06;;;;;;;5.90;3.83;;;14.80;99.90;;;;;;5068367;28;20544;-78
2021/08/19 00:52:32;;;;;;;7.32;3.58;;;14.90;99.90;;;;;;5068059;28;20027;-77
2021/08/19 00:54:59;;;;;;;6.90;3.40;;;14.80;99.90;;;;;;5067971;28;20135;-77
2021/08/19 00:57:25;;;;;;;6.10;3.80;;;14.80;99.90;;;;;;5068164;28;20082;-78
2021/08/19 00:59:52;;;;;;;6.20;3.70;;;14.90;99.90;;;;;;5068029;28;20121;-77
2021/08/19 01:02:19;;;;;;;5.50;3.65;;;14.90;99.90;;;;;;5066218;28;20142;-77
2021/08/19 01:04:45;;;;;;;6.78;3.58;;;14.90;99.90;;;;;;5068210;28;20393;-77
2021/08/19 01:07:11;;;;;;;4.63;3.85;;;14.90;99.90;;;;;;5067651;28;20048;-78
2021/08/19 01:09:37;;;;;;;5.78;3.63;;;14.90;99.90;;;;;;5067929;28;20887;-78
2021/08/19 01:12:12;;;;;;;6.35;3.88;;;14.90;99.90;;;;;;5066329;28;20026;-78
2021/08/19 01:14:38;;;;;;;6.10;4.03;;;14.90;99.90;;;;;;5067630;28;20165;-77
2021/08/19 01:17:20;;;;;;;5.75;3.63;;;14.90;99.90;;;;;;5066263;28;20047;-76
2021/08/19 01:19:46;;;;;;;6.18;4.45;;;14.80;99.90;;;;;;5067966;28;20024;-77
2021/08/19 01:22:14;;;;;;;5.47;4.07;;;14.90;99.90;;;;;;5066155;28;20333;-77
2021/08/19 01:24:39;;;;;;;9.45;4.38;;;14.90;99.90;;;;;;5067536;28;20025;-77
2021/08/19 01:27:10;;;;;;;8.57;4.43;;;14.90;99.90;;;;;;5067665;28;20564;-77
2021/08/19 01:29:35;;;;;;;10.73;4.45;;;14.90;99.90;;;;;;5067661;28;20036;-77
2021/08/19 01:32:04;;;;;;;6.47;4.18;;;14.90;99.90;;;;;;5066887;28;20038;-77
2021/08/19 01:34:30;;;;;;;8.05;4.40;;;14.90;99.90;;;;;;5066047;28;20021;-78
2021/08/19 01:36:57;;;;;;;6.72;4.07;;;14.90;99.90;;;;;;5068351;28;20028;-78
2021/08/19 01:39:23;;;;;;;7.07;4.05;;;14.90;99.90;;;;;;5067283;28;20028;-78
2021/08/19 01:41:49;;;;;;;6.88;4.47;;;14.90;99.90;;;;;;5066318;28;20147;-77
2021/08/19 01:44:16;;;;;;;6.57;4.60;;;14.90;99.90;;;;;;5067421;28;20028;-78
2021/08/19 01:46:43;;;;;;;9.23;4.47;;;14.90;99.90;;;;;;5067432;28;20485;-78
2021/08/19 01:49:10;;;;;;;7.70;4.13;;;14.90;99.90;;;;;;5067578;28;20476;-77
2021/08/19 01:51:36;;;;;;;7.03;4.25;;;14.90;99.90;;;;;;5065933;28;20039;-77
2021/08/19 01:54:02;;;;;;;7.57;4.60;;;14.90;99.90;;;;;;5067726;28;20377;-78
2021/08/19 01:56:28;;;;;;;7.25;4.50;;;14.90;99.90;;;;;;5067594;28;20067;-78
2021/08/19 01:58:56;;;;;;;9.10;4.78;;;14.90;99.90;;;;;;5067411;28;20113;-78
2021/08/19 02:01:25;;;;;;;9.32;4.88;;;14.90;99.90;;;;;;5065543;28;20381;-77
2021/08/19 02:03:51;;;;;;;7.38;4.53;;;14.90;99.90;;;;;;5053935;28;20025;-77
2021/08/19 02:06:17;;;;;;;7.70;4.55;;;14.80;99.90;;;;;;5067321;28;20039;-77
2021/08/19 02:08:42;;;;;;;8.40;5.22;;;14.80;99.90;;;;;;5065964;28;20036;-78
2021/08/19 02:11:09;;;;;;;5.72;4.15;;;14.90;99.90;;;;;;5067563;28;20064;-78
2021/08/19 02:13:34;;;;;;;8.55;4.80;;;14.90;99.90;;;;;;5067166;28;20492;-78
2021/08/19 02:16:00;;;;;;;10.18;4.90;;;14.90;99.90;;;;;;5067404;28;20029;-77
2021/08/19 02:18:27;;;;;;;8.23;5.00;;;14.90;99.90;;;;;;5067874;28;20094;-78
2021/08/19 02:20:52;;;;;;;6.65;4.35;;;14.90;99.90;;;;;;5067632;28;20020;-78
2021/08/19 02:23:18;;;;;;;11.57;4.90;;;14.90;99.90;;;;;;5067800;28;20392;-77
2021/08/19 02:25:44;;;;;;;9.32;5.15;;;14.90;99.90;;;;;;5053434;28;20025;-77
2021/08/19 02:28:10;;;;;;;10.80;4.85;;;14.90;99.90;;;;;;5068029;28;20024;-77
2021/08/19 02:30:35;;;;;;;8.35;5.30;;;14.90;99.90;;;;;;5067054;28;20035;-77
2021/08/19 02:33:03;;;;;;;7.60;4.70;;;14.90;99.90;;;;;;5066803;28;20023;-77
2021/08/19 02:35:29;;;;;;;7.88;4.82;;;14.90;99.90;;;;;;5067752;28;20029;-77
2021/08/19 02:37:56;;;;;;;8.15;4.63;;;14.90;99.90;;;;;;5071116;28;20028;-78
2021/08/19 02:40:23;;;;;;;8.65;5.07;;;14.90;99.90;;;;;;5070597;28;20035;-77
2021/08/19 02:42:49;;;;;;;7.88;5.15;;;15.00;99.90;;;;;;5070774;28;20028;-78
2021/08/19 02:45:15;;;;;;;7.95;5.10;;;15.00;99.90;;;;;;5070898;28;20059;-78
2021/08/19 02:47:41;;;;;;;7.72;4.80;;;15.00;99.90;;;;;;5070773;28;20071;-78
2021/08/19 02:50:07;;;;;;;8.93;5.07;;;15.00;99.90;;;;;;5070546;28;20481;-77
2021/08/19 02:52:33;;;;;;;8.48;5.22;;;15.00;99.90;;;;;;5070754;28;20419;-78
2021/08/19 02:54:59;;;;;;;8.07;4.80;;;15.00;99.90;;;;;;5070306;28;20020;-77
2021/08/19 02:57:26;;;;;;;8.65;5.07;;;15.00;99.90;;;;;;5070554;28;20037;-77
2021/08/19 02:59:52;;;;;;;8.00;5.07;;;15.00;99.90;;;;;;5070503;28;20466;-78
2021/08/19 03:02:18;;;;;;;8.23;4.80;;;15.00;99.90;;;;;;5068418;28;20090;-77
2021/08/19 03:04:44;;;;;;;10.73;5.32;;;15.00;99.90;;;;;;5068820;28;20036;-78
2021/08/19 03:07:11;;;;;;;7.10;4.63;;;15.00;99.90;;;;;;5070793;28;20517;-78
2021/08/19 03:09:37;;;;;;;7.00;4.82;;;15.00;99.90;;;;;;5070093;28;20350;-77
2021/08/19 03:12:04;;;;;;;7.85;5.07;;;15.00;99.90;;;;;;5070290;28;20027;-77
2021/08/19 03:14:31;;;;;;;9.13;5.00;;;15.00;99.90;;;;;;5068641;28;20025;-78
2021/08/19 03:16:57;;;;;;;9.20;4.90;;;14.90;99.90;;;;;;5070194;28;20086;-78
2021/08/19 03:19:22;;;;;;;9.40;4.90;;;14.90;99.90;;;;;;5070539;28;20532;-78
2021/08/19 03:21:48;;;;;;;15.15;5.28;;;14.90;99.90;;;;;;5055837;28;20119;-77
2021/08/19 03:24:14;;;;;;;7.53;5.38;;;14.90;99.90;;;;;;5070418;28;20052;-78
2021/08/19 03:26:40;;;;;;;7.28;5.18;;;14.90;99.90;;;;;;5070449;28;20085;-78
2021/08/19 03:29:06;;;;;;;9.05;4.93;;;15.00;99.90;;;;;;5069409;28;20140;-77
2021/08/19 03:31:31;;;;;;;7.03;5.10;;;15.00;99.90;;;;;;5070183;28;20131;-77
2021/08/19 03:33:57;;;;;;;8.68;4.90;;;15.00;99.90;;;;;;5069583;28;20028;-77
2021/08/19 03:36:24;;;;;;;6.13;4.43;;;15.00;99.90;;;;;;5069973;28;20071;-78
2021/08/19 03:38:50;;;;;;;7.28;5.30;;;15.00;99.90;;;;;;5069782;28;20017;-77
2021/08/19 03:41:16;;;;;;;8.35;4.70;;;14.90;99.90;;;;;;5069911;28;20025;-77
2021/08/19 03:43:41;;;;;;;7.30;4.50;;;14.90;99.90;;;;;;5069478;28;20051;-77
2021/08/19 03:46:07;;;;;;;7.18;5.43;;;14.90;99.90;;;;;;5072577;28;20125;-78
2021/08/19 03:48:33;;;;;;;8.60;5.10;;;14.90;99.90;;;;;;5072097;28;20495;-74
2021/08/19 03:50:59;;;;;;;7.38;4.80;;;14.90;99.90;;;;;;5074765;28;20039;-74
2021/08/19 03:53:24;;;;;;;9.15;4.55;;;14.90;99.90;;;;;;5075051;28;20047;-74
2021/08/19 03:55:50;;;;;;;7.32;5.20;;;14.90;99.90;;;;;;5074836;28;20068;-74
2021/08/19 03:58:16;;;;;;;9.13;5.20;;;14.90;99.90;;;;;;5074878;28;20035;-74
2021/08/19 04:00:41;;;;;;;9.18;5.35;;;14.90;99.90;;;;;;5073388;28;20032;-74
2021/08/19 04:03:07;;;;;;;10.23;5.55;;;14.90;99.90;;;;;;5074747;28;20028;-74
2021/08/19 04:05:33;;;;;;;10.45;5.63;;;14.90;99.90;;;;;;5074889;28;20369;-74
2021/08/19 04:07:58;;;;;;;8.70;5.70;;;14.80;99.90;;;;;;5074739;28;20032;-74
2021/08/19 04:10:24;;;;;;;11.73;5.88;;;14.80;99.90;;;;;;5074364;28;20029;-74
2021/08/19 04:12:49;;;;;;;9.02;5.70;;;14.90;99.90;;;;;;5074489;28;20052;-73
2021/08/19 04:15:15;;;;;;;9.32;5.55;;;14.90;99.90;;;;;;5074740;28;20373;-73
2021/08/19 04:17:41;;;;;;;9.40;5.78;;;14.90;99.90;;;;;;5073205;28;20448;-73
2021/08/19 04:20:07;;;;;;;9.82;5.10;;;14.90;99.90;;;;;;5074473;28;20025;-73
2021/08/19 04:22:33;;;;;;;8.55;5.43;;;14.90;99.90;;;;;;5074878;28;20029;-74
2021/08/19 04:24:59;;;;;;;7.80;5.40;;;14.80;99.90;;;;;;5074259;28;20039;-74
2021/08/19 04:27:25;;;;;;;9.38;5.00;;;14.80;99.90;;;;;;5074443;28;20028;-74
2021/08/19 04:29:51;;;;;;;10.02;5.45;;;14.80;99.90;;;;;;5073990;28;20024;-75
2021/08/19 04:32:17;;;;;;;9.73;5.38;;;14.80;99.90;;;;;;5074171;28;20071;-74
2021/08/19 04:34:42;;;;;;;10.40;5.88;;;14.90;99.90;;;;;;5074321;28;20457;-74
2021/08/19 04:37:08;;;;;;;9.50;5.47;;;14.90;99.90;;;;;;5074441;28;20028;-74
2021/08/19 04:39:34;;;;;;;9.45;5.55;;;14.90;99.90;;;;;;5074641;28;20025;-74
2021/08/19 04:41:59;;;;;;;13.18;5.93;;;14.90;99.90;;;;;;5065248;28;20127;-77
2021/08/19 04:44:27;;;;;;;10.73;5.43;;;14.90;99.90;;;;;;5073336;28;20108;-77
2021/08/19 04:46:53;;;;;;;7.47;5.53;;;14.90;99.90;;;;;;5063780;28;20021;-75
2021/08/19 04:49:18;;;;;;;11.05;5.70;;;14.90;99.90;;;;;;5059545;28;20021;-77
2021/08/19 04:51:45;;;;;;;11.73;6.05;;;14.90;99.90;;;;;;5059059;28;20029;-77
2021/08/19 04:54:11;;;;;;;11.27;6.40;;;14.90;99.90;;;;;;5063210;28;20035;-77
2021/08/19 04:56:37;;;;;;;10.88;6.05;;;14.90;99.90;;;;;;5072873;28;20476;-74
2021/08/19 04:59:07;;;;;;;8.35;5.68;;;14.90;99.90;;;;;;5072974;28;20027;-74
2021/08/19 05:01:34;;;;;;;10.98;6.05;;;15.00;99.90;;;;;;5073858;28;20025;-74
2021/08/19 05:03:59;;;;;;;10.15;6.13;;;14.90;99.90;;;;;;5073903;28;20028;-75
2021/08/19 05:06:29;;;;;;;10.10;5.45;;;15.00;99.90;;;;;;5066283;28;20025;-75
2021/08/19 05:08:57;;;;;;;11.27;6.10;;;15.00;99.90;;;;;;5061053;28;20039;-75
2021/08/19 05:11:23;;;;;;;9.07;5.65;;;15.00;99.90;;;;;;5053804;28;20128;-74
2021/08/19 05:13:50;;;;;;;9.00;6.15;;;15.00;99.90;;;;;;5059607;28;20027;-78
2021/08/19 05:16:16;;;;;;;12.57;6.18;;;15.00;99.90;;;;;;5051427;28;20402;-74
2021/08/19 05:18:43;;;;;;;11.70;5.38;;;15.00;99.90;;;;;;5053161;28;20181;-77
2021/08/19 05:21:13;;;;;;;8.70;6.07;;;15.10;99.90;;;;;;5052128;28;20029;-76
2021/08/19 05:23:42;;;;;;;12.90;6.75;;;15.00;99.90;;;;;;5053436;28;20071;-75
2021/08/19 05:26:08;;;;;;;10.98;6.40;;;15.10;99.90;;;;;;5053105;28;20063;-75
2021/08/19 05:28:34;;;;;;;12.35;6.07;;;15.10;99.90;;;;;;5068502;28;20048;-76
2021/08/19 05:31:00;;;;;;;9.60;5.85;;;15.10;99.90;;;;;;5052984;28;20060;-75
2021/08/19 05:33:26;;;;;;;9.98;6.00;;;15.10;99.90;;;;;;5052971;28;20470;-76
2021/08/19 05:35:51;;;;;;;11.15;6.20;;;15.20;99.90;;;;;;5068247;28;20154;-75
2021/08/19 05:38:17;;;;;;;8.95;5.80;;;15.20;99.90;;;;;;5053216;28;20033;-75
2021/08/19 05:40:43;;;;;;;9.60;6.40;;;15.20;99.90;;;;;;5052860;28;20087;-75
2021/08/19 05:43:09;;;;;;;8.80;5.47;;;15.20;99.90;;;;;;5053143;28;20517;-75
2021/08/19 05:45:34;;;;;;;11.00;5.88;;;15.20;99.90;;;;;;5068227;28;20124;-76
2021/08/19 05:48:03;;;;;;;10.10;5.80;;;15.30;99.90;;;;;;5068161;28;20037;-75
2021/08/19 05:50:33;;;;;;;9.07;6.10;;;15.30;99.90;;;;;;5052690;28;20428;-76
2021/08/19 05:52:59;;;;;;;10.40;6.53;;;15.30;99.90;;;;;;5052978;28;20025;-75
2021/08/19 05:55:24;;;;;;;10.00;5.90;;;15.40;99.90;;;;;;5052520;28;20112;-75
2021/08/19 05:57:53;;;;;;;9.25;6.07;;;15.40;99.90;;;;;;5053169;28;20354;-76
2021/08/19 06:00:21;;;;;;;10.10;6.05;;;15.50;99.90;;;;;;5052931;28;20033;-75
2021/08/19 06:02:52;;;;;;;11.10;5.63;;;15.50;99.90;;;;;;5052477;28;20112;-75
2021/08/19 06:05:20;;;;;;;9.38;6.05;;;15.50;99.90;;;;;;5105242;22;20139;-75
2021/08/19 06:07:51;;;;;;;8.57;5.60;;;15.60;99.90;;;;;;5094684;28;20043;-75
2021/08/19 06:10:18;;;;;;;11.63;5.93;;;15.60;99.90;;;;;;5113356;28;20092;-75
2021/08/19 06:12:45;;;;;;;9.98;5.68;;;15.70;99.90;;;;;;5117161;28;20072;-75
2021/08/19 06:15:10;;;;;;;9.02;5.65;;;15.70;99.90;;;;;;5117227;28;20059;-74
2021/08/19 06:17:36;;;;;;;7.95;5.32;;;15.80;99.90;;;;;;5098835;28;20444;-75
2021/08/19 06:20:04;;;;;;;8.07;5.75;;;15.80;99.90;;;;;;5113930;28;20036;-77
2021/08/19 06:22:30;;;;;;;11.50;5.50;;;15.90;99.90;;;;;;5108610;28;20027;-77
2021/08/19 06:24:55;;;;;;;7.38;5.18;;;15.90;99.90;;;;;;5108329;28;20084;-77
2021/08/19 06:27:21;;;;;;;10.77;5.78;;;16.00;99.90;;;;;;5108307;28;20023;-76
2021/08/19 06:29:47;;;;;;;8.77;5.50;;;16.00;99.90;;;;;;5108161;28;20847;-77
2021/08/19 06:32:12;;;;;;;9.77;5.90;;;16.00;99.90;;;;;;5089253;28;20028;-77
2021/08/19 06:34:38;;;;;;;7.18;5.18;;;16.10;99.90;;;;;;5109216;28;20637;-77
2021/08/19 06:37:04;;;;;;;9.43;5.72;;;16.10;99.90;;;;;;5108709;28;20048;-76
2021/08/19 06:39:31;;;;;;;8.88;5.47;;;16.20;99.90;;;;;;5107969;28;20043;-77
2021/08/19 06:41:56;;;;;;;7.75;5.28;;;16.20;99.90;;;;;;5109824;28;20016;-78
2021/08/19 06:44:22;;;;;;;8.30;5.18;;;16.30;99.90;;;;;;5109519;28;20395;-79
2021/08/19 06:46:47;;;;;;;8.23;4.93;;;16.40;99.90;;;;;;5090944;28;20024;-78
2021/08/19 06:49:13;;;;;;;10.13;4.95;;;16.40;99.90;;;;;;5109506;28;20024;-78
2021/08/19 06:51:39;;;;;;;10.02;5.68;;;16.50;99.90;;;;;;5109663;28;20486;-77
2021/08/19 06:54:04;;;;;;;8.57;5.22;;;16.50;99.90;;;;;;5108326;28;20035;-78
2021/08/19 06:56:30;;;;;;;7.03;4.25;;;16.50;99.90;;;;;;5089043;28;20038;-78
2021/08/19 06:58:56;;;;;;;10.75;4.97;;;16.50;99.90;;;;;;5107471;28;20119;-79
2021/08/19 07:01:22;;;;;;;7.38;4.80;;;16.60;99.90;;;;;;5107580;28;20180;-79
2021/08/19 07:03:47;;;;;;;8.65;5.18;;;16.60;99.90;;;;;;5107192;28;20113;-78
2021/08/19 07:06:17;;;;;;;6.97;4.57;;;16.60;99.90;;;;;;5107383;28;20061;-79
2021/08/19 07:08:43;;;;;;;7.10;4.55;;;16.70;99.90;;;;;;5107278;28;20023;-79
2021/08/19 07:11:10;;;;;;;6.47;4.15;;;16.70;99.90;;;;;;5107370;28;20582;-77
2021/08/19 07:13:36;;;;;;;7.00;4.78;;;16.70;99.90;;;;;;5106574;28;20103;-77
2021/08/19 07:16:02;;;;;;;8.90;4.75;;;16.80;99.90;;;;;;5106157;28;20218;-77
2021/08/19 07:18:28;;;;;;;7.60;4.35;;;16.90;99.90;;;;;;5107170;28;20030;-77
2021/08/19 07:20:54;;;;;;;6.07;4.10;;;16.90;99.90;;;;;;5088559;28;20028;-77
2021/08/19 07:23:20;;;;;;;7.50;4.20;;;17.00;99.90;;;;;;5105670;28;20084;-76
2021/08/19 07:25:45;;;;;;;5.25;3.67;;;17.10;99.90;;;;;;5107416;28;20027;-77
2021/08/19 07:28:12;;;;;;;6.72;3.88;;;17.10;99.90;;;;;;5106975;28;20042;-78
2021/08/19 07:30:38;;;;;;;6.65;4.32;;;17.10;99.90;;;;;;5106571;28;20036;-77
2021/08/19 07:33:04;;;;;;;6.00;4.47;;;17.20;99.90;;;;;;5106969;28;20101;-77
2021/08/19 07:35:30;;;;;;;6.95;3.78;;;17.20;99.90;;;;;;5106540;28;20049;-77
2021/08/19 07:37:56;;;;;;;7.50;4.30;;;17.30;99.90;;;;;;5104669;28;20034;-77
2021/08/19 07:40:28;;;;;;;5.78;3.83;;;17.30;99.90;;;;;;5088574;28;20040;-76
2021/08/19 07:42:54;;;;;;;6.82;3.90;;;17.30;99.90;;;;;;5106144;28;20032;-77
2021/08/19 07:45:22;;;;;;;5.40;3.75;;;17.40;99.90;;;;;;5103713;28;20363;-77
2021/08/19 07:47:48;;;;;;;6.00;3.88;;;17.40;99.90;;;;;;5104815;28;20043;-77
2021/08/19 07:50:15;;;;;;;5.55;4.00;;;17.40;99.90;;;;;;5105991;28;20032;-79
2021/08/19 07:52:41;;;;;;;6.43;3.97;;;17.50;99.90;;;;;;5087162;28;20438;-78
2021/08/19 07:55:11;;;;;;;6.30;4.15;;;17.60;99.90;;;;;;5088598;28;20072;-78
2021/08/19 07:57:44;;;;;;;5.82;3.88;;;17.70;99.90;;;;;;5106833;28;20076;-79
2021/08/19 08:00:10;;;;;;;6.15;3.95;;;17.70;99.90;;;;;;5106369;28;20836;-79
2021/08/19 08:02:36;;;;;;;7.00;3.85;;;17.70;99.90;;;;;;5109269;28;20044;-78
2021/08/19 08:05:04;;;;;;;5.53;4.05;;;17.70;99.90;;;;;;5108646;28;20039;-78
2021/08/19 08:07:30;;;;;;;5.53;3.45;;;17.80;99.90;;;;;;5093731;28;20028;-78
2021/08/19 08:09:57;;;;;;;6.65;3.53;;;17.90;99.90;;;;;;5093321;28;20018;-74
2021/08/19 08:12:24;;;;;;;5.25;3.28;;;17.90;99.90;;;;;;5103501;28;20020;-74
2021/08/19 08:14:50;;;;;;;4.82;3.15;;;18.00;99.90;;;;;;5130839;27;20023;-74
2021/08/19 08:17:19;;;;;;;4.10;3.13;;;18.00;99.90;;;;;;5135794;27;20043;-74
2021/08/19 08:19:49;;;;;;;6.32;3.75;;;18.10;99.90;;;;;;5100848;28;20036;-76
2021/08/19 08:22:15;;;;;;;5.38;3.15;;;18.20;99.90;;;;;;5109549;28;20015;-75
2021/08/19 08:24:41;;;;;;;6.03;3.17;;;18.30;99.90;;;;;;5097352;28;20019;-75
2021/08/19 08:27:07;;;;;;;6.00;3.45;;;18.50;99.90;;;;;;5114592;28;20023;-76
2021/08/19 08:29:32;;;;;;;4.80;3.05;;;18.60;99.90;;;;;;5115229;28;20099;-75
2021/08/19 08:32:04;;;;;;;6.93;2.60;;;18.70;99.90;;;;;;5100552;28;20020;-79
2021/08/19 08:34:30;;;;;;;5.10;3.10;;;18.80;99.90;;;;;;5114308;28;20023;-75
2021/08/19 08:36:55;;;;;;;5.60;2.78;;;18.80;99.90;;;;;;5096637;28;20015;-76
2021/08/19 08:39:21;;;;;;;3.83;2.70;;;18.80;99.90;;;;;;5114488;28;20020;-74
2021/08/19 08:41:47;;;;;;;5.78;2.78;;;18.80;99.90;;;;;;5113136;28;20042;-75
2021/08/19 08:44:14;;;;;;;5.38;1.90;;;18.90;99.90;;;;;;5090189;28;20067;-77
2021/08/19 08:46:41;;;;;;;3.95;2.42;;;18.80;99.90;;;;;;5100550;28;20727;-79
2021/08/19 08:49:09;;;;;;;3.47;2.33;;;19.00;99.90;;;;;;5114663;28;20031;-76
2021/08/19 08:51:37;;;;;;;4.78;2.47;;;19.20;99.90;;;;;;5114166;28;20073;-76
2021/08/19 08:54:03;;;;;;;6.25;2.38;;;19.20;99.90;;;;;;5100206;28;20012;-75
2021/08/19 08:56:29;;;;;;;3.33;2.10;;;19.30;99.90;;;;;;5093559;27;20023;-80
2021/08/19 08:58:55;;;;;;;3.28;1.75;;;19.40;99.90;;;;;;5075496;28;20379;-76
2021/08/19 09:01:21;;;;;;;3.40;1.83;;;19.50;99.90;;;;;;5084542;28;20038;-77
2021/08/19 09:03:47;;;;;;;7.03;2.17;;;19.50;99.90;;;;;;5085442;28;20232;-77
2021/08/19 09:06:17;;;;;;;3.50;1.80;;;19.60;99.90;;;;;;5074031;28;20058;-75
2021/08/19 09:08:52;;;;;;;5.95;1.80;;;19.70;99.90;;;;;;5113838;28;20046;-76
2021/08/19 09:11:20;;;;;;;3.72;2.00;;;19.70;99.90;;;;;;5113627;28;20080;-75
2021/08/19 09:13:46;;;;;;;2.33;1.70;;;19.70;99.90;;;;;;5113643;28;20478;-76
2021/08/19 09:16:16;;;;;;;5.13;1.67;;;19.70;99.90;;;;;;5110903;28;20114;-78
2021/08/19 09:18:42;;;;;;;6.07;1.90;;;19.90;99.90;;;;;;5104430;28;20028;-77
2021/08/19 09:21:17;;;;;;;4.47;1.80;;;20.00;99.90;;;;;;5104254;28;20476;-78
2021/08/19 09:23:43;;;;;;;4.05;2.15;;;20.00;99.90;;;;;;5112400;28;20194;-74
2021/08/19 09:26:10;;;;;;;3.67;2.03;;;20.00;99.90;;;;;;5106363;28;20020;-78
2021/08/19 09:28:36;;;;;;;2.53;1.85;;;20.00;99.90;;;;;;5104080;28;20140;-78
2021/08/19 09:31:06;;;;;;;2.53;1.92;;;20.10;99.90;;;;;;5104625;28;20043;-76
2021/08/19 09:33:37;;;;;;;3.58;1.50;;;20.10;99.90;;;;;;5113626;28;20367;-76
2021/08/19 09:36:08;;;;;;;2.55;1.58;;;20.00;99.90;;;;;;5114117;28;20034;-76
2021/08/19 09:38:41;;;;;;;3.10;1.67;;;19.90;99.90;;;;;;5086659;28;20082;-79
2021/08/19 09:41:12;;;;;;;2.63;1.58;;;20.10;99.90;;;;;;5103770;28;20023;-79
2021/08/19 09:43:40;;;;;;;3.97;1.70;;;20.10;99.90;;;;;;5104538;28;20027;-79
2021/08/19 09:46:06;;;;;;;2.33;1.70;;;20.20;99.90;;;;;;5103852;28;20085;-78
2021/08/19 09:48:33;;;;;;;1.70;1.40;;;20.20;99.90;;;;;;5104303;28;20053;-77
2021/08/19 09:51:19;;;;;;;3.85;1.40;;;20.10;99.90;;;;;;5103563;28;20837;-79
2021/08/19 09:53:47;;;;;;;3.25;1.45;;;20.10;99.90;;;;;;5104291;28;20027;-80
2021/08/19 09:56:25;;;;;;;3.88;1.77;;;20.30;99.90;;;;;;5103341;28;20023;-79
2021/08/19 09:58:51;;;;;;;3.75;1.42;;;20.30;99.90;;;;;;5108003;28;20123;-76
2021/08/19 10:01:16;;;;;;;3.45;1.50;;;20.50;99.90;;;;;;5113518;28;20435;-76
2021/08/19 10:03:42;;;;;;;2.72;1.73;;;20.70;99.90;;;;;;5112950;28;20023;-76
2021/08/19 10:06:09;;;;;;;3.35;1.55;;;20.80;99.90;;;;;;5113021;28;20036;-76
2021/08/19 10:08:34;;;;;;;2.30;1.60;;;20.90;99.90;;;;;;5113720;28;20027;-75
2021/08/19 10:11:02;;;;;;;3.22;1.35;;;21.00;99.90;;;;;;5113576;28;20030;-75
2021/08/19 10:13:29;;;;;;;2.65;1.80;;;21.00;99.90;;;;;;5113371;28;20100;-75
2021/08/19 10:15:55;;;;;;;2.45;1.52;;;21.20;99.90;;;;;;5113257;28;20093;-76
2021/08/19 10:18:24;;;;;;;5.10;1.40;;;21.40;99.90;;;;;;5113395;28;20364;-75
2021/08/19 10:20:58;;;;;;;2.53;1.50;;;21.30;99.90;;;;;;5113040;28;20103;-76
2021/08/19 10:23:25;;;;;;;1.75;1.30;;;21.30;99.90;;;;;;5094818;28;20027;-75
2021/08/19 10:26:09;;;;;;;2.10;1.65;;;21.10;99.90;;;;;;5094724;28;20437;-75
2021/08/19 10:28:57;;;;;;;2.70;1.75;;;21.20;99.90;;;;;;5113062;28;20028;-76
2021/08/19 10:31:43;;;;;;;3.40;1.48;;;21.30;99.90;;;;;;5112812;28;20030;-75
2021/08/19 10:34:10;;;;;;;2.03;1.40;;;21.50;99.90;;;;;;5113138;28;20098;-76
2021/08/19 10:36:41;;;;;;;3.10;1.40;;;21.40;99.90;;;;;;5112936;28;20024;-76
2021/08/19 10:39:19;;;;;;;2.08;1.38;;;21.40;99.90;;;;;;5107194;28;20031;-79
2021/08/19 10:41:55;;;;;;;1.77;1.30;;;21.40;99.90;;;;;;5105218;28;20231;-79
2021/08/19 10:44:49;;;;;;;1.95;1.42;;;21.20;99.90;;;;;;5091729;28;20526;-79
2021/08/19 10:47:34;;;;;;;1.80;1.30;;;21.20;99.90;;;;;;5102989;28;20544;-79
2021/08/19 10:50:25;;;;;;;3.92;1.70;;;21.20;99.90;;;;;;5087248;28;20468;-79
2021/08/19 10:52:51;;;;;;;2.20;1.50;;;21.20;99.90;;;;;;5105050;28;20406;-79
2021/08/19 10:55:19;;;;;;;1.58;1.15;;;21.20;99.90;;;;;;5104896;28;20031;-78
2021/08/19 10:57:55;;;;;;;4.53;1.70;;;21.20;99.90;;;;;;5105414;28;20026;-79
2021/08/19 11:00:39;;;;;;;5.63;1.50;;;21.50;99.90;;;;;;5109677;28;20031;-76
2021/08/19 11:03:05;;;;;;;2.53;1.52;;;21.80;99.90;;;;;;5106712;28;20086;-79
2021/08/19 11:05:31;;;;;;;1.98;1.50;;;21.70;99.90;;;;;;5107888;28;20055;-80
2021/08/19 11:08:01;;;;;;;2.58;1.48;;;21.60;99.90;;;;;;5108089;28;20036;-79
2021/08/19 11:10:39;;;;;;;3.28;1.70;;;21.70;99.90;;;;;;5108817;28;20030;-79
2021/08/19 11:13:13;;;;;;;2.55;1.40;;;21.90;99.90;;;;;;5115799;28;20020;-75
2021/08/19 11:15:47;;;;;;;2.15;1.42;;;22.00;99.90;;;;;;5116080;28;20042;-75
2021/08/19 11:18:28;;;;;;;2.03;1.20;;;22.10;99.90;;;;;;5116212;28;20020;-75
2021/08/19 11:20:54;;;;;;;2.22;1.33;;;22.30;99.90;;;;;;5097654;28;20475;-75
2021/08/19 11:23:34;;;;;;;2.72;1.38;;;22.40;99.90;;;;;;5116016;28;20058;-75
2021/08/19 11:26:06;;;;;;;2.45;1.65;;;22.80;99.90;;;;;;5116068;28;20023;-76
2021/08/19 11:28:40;;;;;;;1.95;1.33;;;22.90;99.90;;;;;;5115866;28;20222;-76
2021/08/19 11:31:17;;;;;;;;;;;22.90;99.90;;;;;;5116194;28;20042;-76
2021/08/19 11:33:44;;;;;;;2.17;1.35;;;22.80;99.90;;;;;;5115866;28;19934;-75
2021/08/19 11:36:10;;;;;;;4.93;1.90;;;22.80;99.90;;;;;;5115743;28;20089;-75
2021/08/19 11:38:36;;;;;;;2.17;1.50;;;22.90;99.90;;;;;;5115705;28;20452;-76
2021/08/19 11:41:31;;;;;;;2.30;1.60;;;23.10;99.90;;;;;;5115971;28;20019;-76
2021/08/19 11:43:58;;;;;;;;;;;23.20;99.90;;;;;;5102913;28;20119;-75
2021/08/19 11:46:24;;;;;;;2.55;1.55;;;23.00;99.90;;;;;;5115267;28;19904;-75
2021/08/19 11:49:02;;;;;;;1.92;1.52;;;23.00;99.90;;;;;;5115755;28;20024;-75
2021/08/19 11:51:33;;;;;;;2.42;1.50;;;23.00;99.90;;;;;;5115623;28;20130;-75
2021/08/19 11:54:02;;;;;;;3.22;1.90;;;23.10;99.90;;;;;;5115639;28;20012;-75
2021/08/19 11:56:30;;;;;;;2.72;1.45;;;23.10;99.90;;;;;;5097052;28;20077;-76
2021/08/19 11:59:07;;;;;;;3.00;1.50;;;22.90;99.90;;;;;;5096882;28;20023;-77
2021/08/19 12:01:35;;;;;;;2.65;1.40;;;22.80;99.90;;;;;;5096976;28;20038;-76
2021/08/19 12:04:02;;;;;;;3.45;1.60;;;22.80;99.90;;;;;;5115130;28;20450;-75
2021/08/19 12:06:31;;;;;;;2.53;1.60;;;22.60;99.90;;;;;;5114085;28;20028;-76
2021/08/19 12:09:02;;;;;;;2.90;1.90;;;22.50;99.90;;;;;;5114903;28;20110;-75
2021/08/19 12:11:30;;;;;;;2.20;1.75;;;22.20;99.90;;;;;;5115261;28;20046;-75
2021/08/19 12:13:58;;;;;;;3.75;1.75;;;22.10;99.90;;;;;;5115310;28;20024;-75
2021/08/19 12:16:27;;;;;;;1.88;1.60;;;22.10;99.90;;;;;;5115274;28;20023;-75
2021/08/19 12:19:11;;;;;;;2.45;1.75;;;22.40;99.90;;;;;;5114983;28;20109;-76
2021/08/19 12:21:40;;;;;;;2.55;1.80;;;22.40;99.90;;;;;;5114582;28;20020;-76
2021/08/19 12:24:19;;;;;;;3.72;2.05;;;22.50;99.90;;;;;;5115041;28;20027;-75
2021/08/19 12:27:09;;;;;;;2.10;1.83;;;22.40;99.90;;;;;;5114855;28;20016;-75
2021/08/19 12:29:37;;;;;;;2.97;1.88;;;22.60;99.90;;;;;;5114992;28;20043;-75
2021/08/19 12:32:03;;;;;;;2.53;1.73;;;22.70;99.90;;;;;;5115031;28;20032;-75
2021/08/19 12:34:29;;;;;;;3.05;2.00;;;22.70;99.90;;;;;;5114577;28;20031;-75
2021/08/19 12:37:06;;;;;;;2.88;1.90;;;22.70;99.90;;;;;;5114946;28;20355;-76
2021/08/19 12:39:36;;;;;;;3.20;2.00;;;22.50;99.90;;;;;;5114788;28;20020;-75
2021/08/19 12:42:09;;;;;;;3.78;1.73;;;22.50;99.90;;;;;;5114459;28;20077;-74
2021/08/19 12:44:36;;;;;;;2.60;1.80;;;22.50;99.90;;;;;;5114717;28;20035;-76
2021/08/19 12:47:02;;;;;;;2.83;2.10;;;22.60;99.90;;;;;;5114617;28;20023;-75
2021/08/19 12:49:35;;;;;;;2.45;1.95;;;22.90;99.90;;;;;;5096645;28;20479;-75